createdAt,value
2023-03-24T00:00:41.007Z,1.80
2023-03-24T00:03:27.530Z,2.38
2023-03-24T00:06:18.934Z,2.58
2023-03-24T00:09:04.832Z,1.85
2023-03-24T00:11:50.419Z,3.20
2023-03-24T00:14:38.715Z,2.42
2023-03-24T00:17:25.601Z,3.08
2023-03-24T00:20:14.871Z,2.92
2023-03-24T00:23:00.519Z,2.78
2023-03-24T00:25:45.858Z,3.88
2023-03-24T00:28:37.002Z,4.25
2023-03-24T00:31:22.748Z,4.22
2023-03-24T00:34:10.311Z,3.67
2023-03-24T00:36:55.748Z,3.72
2023-03-24T00:39:42.683Z,3.50
2023-03-24T00:42:28.670Z,3.65
2023-03-24T00:45:18.277Z,5.63
2023-03-24T00:48:05.338Z,2.88
2023-03-24T00:50:52.168Z,5.22
2023-03-24T00:53:43.560Z,4.00
2023-03-24T00:56:31.520Z,3.55
2023-03-24T00:59:16.944Z,3.17
2023-03-24T01:02:02.635Z,4.10
2023-03-24T01:04:59.422Z,3.38
2023-03-24T01:07:45.196Z,6.05
2023-03-24T01:10:34.578Z,2.90
2023-03-24T01:13:30.278Z,6.20
2023-03-24T01:16:15.804Z,3.33
2023-03-24T01:19:01.605Z,4.15
2023-03-24T01:21:50.914Z,3.80
2023-03-24T01:24:37.134Z,4.65
2023-03-24T01:27:23.835Z,4.30
2023-03-24T01:30:13.126Z,3.97
2023-03-24T01:32:58.678Z,3.20
2023-03-24T01:35:44.783Z,4.70
2023-03-24T01:38:30.447Z,3.22
2023-03-24T01:41:16.202Z,3.25
2023-03-24T01:44:22.387Z,4.40
2023-03-24T01:47:08.556Z,3.03
2023-03-24T01:50:00.652Z,4.78
2023-03-24T01:52:46.437Z,4.38
2023-03-24T01:55:32.894Z,3.83
2023-03-24T01:58:18.955Z,4.10
2023-03-24T02:01:05.524Z,3.20
2023-03-24T02:03:53.022Z,2.90
2023-03-24T02:06:44.071Z,2.60
2023-03-24T02:09:29.924Z,4.88
2023-03-24T02:12:16.387Z,2.83
2023-03-24T02:15:03.874Z,3.50
2023-03-24T02:18:37.976Z,3.85
2023-03-24T02:21:39.965Z,3.78
2023-03-24T02:25:16.462Z,4.63
2023-03-24T02:28:07.767Z,4.35
2023-03-24T02:31:11.689Z,3.03
2023-03-24T02:34:36.030Z,4.82
2023-03-24T02:37:29.710Z,3.25
2023-03-24T02:40:29.344Z,4.05
2023-03-24T02:43:35.989Z,3.10
2023-03-24T02:46:55.244Z,4.53
2023-03-24T02:49:48.283Z,3.95
2023-03-24T02:52:33.906Z,3.88
2023-03-24T02:55:34.432Z,4.10
2023-03-24T02:58:35.583Z,3.55
2023-03-24T03:01:32.751Z,4.15
2023-03-24T03:04:24.271Z,5.72
2023-03-24T03:07:11.753Z,5.13
2023-03-24T03:10:32.765Z,4.95
2023-03-24T03:14:01.721Z,5.63
2023-03-24T03:17:06.400Z,4.35
2023-03-24T03:19:58.165Z,4.88
2023-03-24T03:22:58.554Z,4.55
2023-03-24T03:25:50.411Z,4.18
2023-03-24T03:28:41.414Z,4.20
2023-03-24T03:31:42.354Z,4.15
2023-03-24T03:34:52.639Z,4.35
2023-03-24T03:38:14.869Z,5.50
2023-03-24T03:41:03.823Z,5.68
2023-03-24T03:43:50.557Z,3.90
2023-03-24T03:46:36.684Z,4.38
2023-03-24T03:49:22.915Z,5.28
2023-03-24T03:52:09.113Z,5.65
2023-03-24T03:54:55.979Z,5.13
2023-03-24T03:57:41.891Z,4.97
2023-03-24T04:00:27.816Z,6.25
2023-03-24T04:03:28.520Z,5.95
2023-03-24T04:06:43.833Z,5.72
2023-03-24T04:09:47.546Z,4.75
2023-03-24T04:12:38.962Z,4.90
2023-03-24T04:15:51.710Z,6.10
2023-03-24T04:19:09.821Z,5.05
2023-03-24T04:22:07.199Z,5.07
2023-03-24T04:25:35.314Z,5.63
2023-03-24T04:28:59.184Z,5.10
2023-03-24T04:31:59.192Z,5.18
2023-03-24T04:34:50.943Z,5.78
2023-03-24T04:37:39.688Z,4.63
2023-03-24T04:40:26.853Z,4.82
2023-03-24T04:43:19.648Z,5.45
2023-03-24T04:46:09.520Z,4.95
2023-03-24T04:48:55.072Z,5.03
2023-03-24T04:51:40.751Z,4.50
2023-03-24T04:54:26.064Z,6.20
2023-03-24T04:57:11.497Z,5.32
2023-03-24T04:59:57.282Z,5.97
2023-03-24T05:02:45.317Z,6.00
2023-03-24T05:05:30.680Z,5.38
2023-03-24T05:08:17.589Z,4.70
2023-03-24T05:11:03.361Z,6.63
2023-03-24T05:13:49.202Z,5.95
2023-03-24T05:16:34.594Z,5.10
2023-03-24T05:19:20.674Z,5.00
2023-03-24T05:22:07.314Z,4.75
2023-03-24T05:24:52.955Z,5.35
2023-03-24T05:27:38.755Z,6.13
2023-03-24T05:30:24.475Z,6.85
2023-03-24T05:33:10.571Z,4.53
2023-03-24T05:35:56.261Z,5.55
2023-03-24T05:38:41.987Z,6.57
2023-03-24T05:41:30.335Z,5.25
2023-03-24T05:44:16.193Z,3.67
2023-03-24T05:47:02.356Z,4.38
2023-03-24T05:49:48.221Z,6.35
2023-03-24T05:52:34.775Z,5.55
2023-03-24T05:55:20.522Z,5.40
2023-03-24T05:58:07.145Z,5.60
2023-03-24T06:00:52.284Z,6.32
2023-03-24T06:03:41.730Z,6.32
2023-03-24T06:06:28.780Z,5.10
2023-03-24T06:09:17.265Z,5.60
2023-03-24T06:12:04.545Z,4.28
2023-03-24T06:14:50.053Z,4.18
2023-03-24T06:17:37.559Z,5.35
2023-03-24T06:20:23.264Z,5.88
2023-03-24T06:23:08.657Z,4.97
2023-03-24T06:25:55.693Z,4.65
2023-03-24T06:28:42.266Z,4.82
2023-03-24T06:31:30.258Z,4.28
2023-03-24T06:34:15.974Z,4.90
2023-03-24T06:37:01.423Z,3.97
2023-03-24T06:39:46.823Z,5.53
2023-03-24T06:42:32.500Z,4.13
2023-03-24T06:45:18.374Z,4.55
2023-03-24T06:48:04.369Z,3.95
2023-03-24T06:50:49.948Z,4.85
2023-03-24T06:53:35.794Z,4.53
2023-03-24T06:56:21.631Z,4.75
2023-03-24T06:59:07.123Z,4.78
2023-03-24T07:01:53.351Z,6.22
2023-03-24T07:04:38.979Z,4.68
2023-03-24T07:10:14.040Z,3.78
2023-03-24T07:13:01.198Z,5.28
2023-03-24T07:15:46.847Z,4.13
2023-03-24T07:18:32.577Z,4.05
2023-03-24T07:21:18.522Z,5.22
2023-03-24T07:24:04.358Z,4.32
2023-03-24T07:26:49.806Z,5.95
2023-03-24T07:29:36.279Z,5.13
2023-03-24T07:32:21.793Z,6.45
2023-03-24T07:35:11.947Z,4.40
2023-03-24T07:38:01.543Z,4.05
2023-03-24T07:40:47.530Z,4.32
2023-03-24T07:43:33.305Z,4.97
2023-03-24T07:46:19.123Z,4.63
2023-03-24T07:49:16.462Z,3.88
2023-03-24T07:52:06.731Z,3.90
2023-03-24T07:54:52.345Z,4.22
2023-03-24T07:57:41.696Z,4.70
2023-03-24T08:00:29.604Z,4.60
2023-03-24T08:03:15.625Z,3.60
2023-03-24T08:06:02.193Z,4.43
2023-03-24T08:08:47.759Z,4.60
2023-03-24T08:11:33.880Z,4.22
2023-03-24T08:14:19.183Z,3.97
2023-03-24T08:17:04.890Z,3.28
2023-03-24T08:20:00.050Z,4.10
2023-03-24T08:22:54.112Z,3.28
2023-03-24T08:25:39.727Z,4.55
2023-03-24T08:28:25.134Z,2.92
2023-03-24T08:31:11.971Z,3.53
2023-03-24T08:33:58.072Z,4.50
2023-03-24T08:36:44.023Z,3.45
2023-03-24T08:39:32.384Z,5.35
2023-03-24T08:42:18.149Z,3.25
2023-03-24T08:45:04.451Z,3.42
2023-03-24T08:47:52.267Z,2.70
2023-03-24T08:50:44.414Z,3.88
2023-03-24T08:53:33.341Z,4.20
2023-03-24T08:56:20.337Z,4.00
2023-03-24T08:59:06.820Z,3.75
2023-03-24T09:01:53.116Z,3.83
2023-03-24T09:04:39.475Z,5.40
2023-03-24T09:07:25.378Z,4.07
2023-03-24T09:10:12.823Z,3.42
2023-03-24T09:12:58.844Z,4.57
2023-03-24T09:15:55.570Z,4.57
2023-03-24T09:18:41.673Z,4.63
2023-03-24T09:21:27.601Z,4.60
2023-03-24T09:24:13.651Z,4.38
2023-03-24T09:26:59.219Z,3.47
2023-03-24T09:29:45.011Z,3.42
2023-03-24T09:32:30.816Z,3.38
2023-03-24T09:35:16.618Z,3.47
2023-03-24T09:38:02.682Z,3.25
2023-03-24T09:40:53.676Z,3.08
2023-03-24T09:44:30.315Z,3.25
2023-03-24T09:47:29.780Z,2.50
2023-03-24T09:50:25.347Z,3.28
2023-03-24T09:53:38.048Z,2.70
2023-03-24T09:56:26.379Z,3.90
2023-03-24T09:59:19.981Z,3.30
2023-03-24T10:02:19.394Z,2.88
2023-03-24T10:05:17.273Z,3.83
2023-03-24T10:08:36.531Z,2.90
2023-03-24T10:11:39.512Z,3.60
2023-03-24T10:14:45.825Z,3.88
2023-03-24T10:17:34.256Z,2.25
2023-03-24T10:20:19.843Z,2.83
2023-03-24T10:23:18.972Z,2.60
2023-03-24T10:26:09.820Z,3.47
2023-03-24T10:29:22.581Z,3.53
2023-03-24T10:32:24.887Z,3.80
2023-03-24T10:35:25.074Z,2.80
2023-03-24T10:38:30.975Z,3.22
2023-03-24T10:41:22.335Z,2.53
2023-03-24T10:44:08.245Z,2.10
2023-03-24T10:46:58.116Z,2.20
2023-03-24T10:50:14.115Z,2.58
2023-03-24T10:53:00.793Z,1.83
2023-03-24T10:55:47.944Z,2.47
2023-03-24T10:58:40.349Z,2.83
2023-03-24T11:01:30.487Z,2.20
2023-03-24T11:04:19.879Z,1.50
2023-03-24T11:07:14.591Z,2.63
2023-03-24T11:10:15.348Z,2.15
2023-03-24T11:13:04.068Z,1.48
2023-03-24T11:15:56.162Z,2.00
2023-03-24T11:18:58.767Z,2.13
2023-03-24T11:21:44.844Z,2.08
2023-03-24T11:24:31.157Z,2.63
2023-03-24T11:27:18.507Z,1.85
2023-03-24T11:30:05.063Z,2.45
2023-03-24T11:32:55.197Z,1.75
2023-03-24T11:35:42.677Z,1.75
2023-03-24T11:38:33.645Z,1.90
2023-03-24T11:41:21.870Z,2.15
2023-03-24T11:44:18.101Z,1.65
2023-03-24T11:47:24.954Z,2.13
2023-03-24T11:50:17.574Z,1.67
2023-03-24T11:53:11.323Z,1.88
2023-03-24T11:56:15.958Z,2.03
2023-03-24T11:59:14.253Z,1.70
2023-03-24T12:02:02.683Z,2.45
2023-03-24T12:05:02.452Z,2.80
2023-03-24T12:08:19.938Z,2.08
2023-03-24T12:11:08.752Z,1.85
2023-03-24T12:13:57.462Z,2.03
2023-03-24T12:16:55.617Z,2.65
2023-03-24T12:20:21.697Z,2.15
2023-03-24T12:23:36.264Z,2.10
2023-03-24T12:26:29.028Z,2.40
2023-03-24T12:29:41.537Z,3.03
2023-03-24T12:33:08.671Z,2.72
2023-03-24T12:36:04.319Z,2.70
2023-03-24T12:39:19.682Z,2.83
2023-03-24T12:42:10.927Z,2.50
2023-03-24T12:45:23.528Z,2.00
2023-03-24T12:48:34.012Z,2.80
2023-03-24T12:51:54.310Z,2.85
2023-03-24T12:55:06.538Z,2.70
2023-03-24T12:58:00.813Z,2.10
2023-03-24T13:00:59.016Z,2.45
2023-03-24T13:04:09.352Z,2.28
2023-03-24T13:07:11.733Z,2.10
2023-03-24T13:10:07.060Z,2.65
2023-03-24T13:13:02.447Z,2.40
2023-03-24T13:15:54.021Z,2.08
2023-03-24T13:19:02.259Z,1.92
2023-03-24T13:21:49.258Z,2.20
2023-03-24T13:24:34.895Z,1.98
2023-03-24T13:27:25.060Z,2.30
2023-03-24T13:30:31.460Z,2.60
2023-03-24T13:33:24.979Z,2.83
2023-03-24T13:36:23.192Z,2.60
2023-03-24T13:39:17.318Z,1.80
2023-03-24T13:42:03.495Z,2.03
2023-03-24T13:44:49.416Z,2.08
2023-03-24T13:47:57.796Z,2.90
2023-03-24T13:51:01.356Z,2.20
2023-03-24T13:54:16.535Z,2.83
2023-03-24T13:57:18.718Z,2.55
2023-03-24T14:00:20.210Z,2.30
2023-03-24T14:03:15.580Z,2.30
2023-03-24T14:06:08.565Z,2.75
2023-03-24T14:09:01.641Z,3.90
2023-03-24T14:12:08.590Z,2.50
2023-03-24T14:15:14.935Z,3.00
2023-03-24T14:18:26.094Z,3.70
2023-03-24T14:21:12.322Z,2.50
2023-03-24T14:23:59.658Z,2.20
2023-03-24T14:26:46.428Z,3.42
2023-03-24T14:29:51.488Z,2.60
2023-03-24T14:32:46.065Z,1.90
2023-03-24T14:35:44.770Z,2.58
2023-03-24T14:38:34.243Z,2.22
2023-03-24T14:41:29.129Z,2.03
2023-03-24T14:44:14.650Z,2.72
2023-03-24T14:47:00.119Z,2.00
2023-03-24T14:49:48.189Z,1.88
2023-03-24T14:52:53.539Z,2.33
2023-03-24T14:55:39.746Z,2.80
2023-03-24T14:58:34.218Z,1.83
2023-03-24T15:01:22.303Z,1.88
2023-03-24T15:04:09.529Z,2.00
2023-03-24T15:06:54.998Z,2.58
2023-03-24T15:09:49.632Z,2.78
2023-03-24T15:12:35.078Z,2.10
2023-03-24T15:15:23.380Z,2.45
2023-03-24T15:18:18.039Z,1.98
2023-03-24T15:21:25.690Z,2.10
2023-03-24T15:24:26.557Z,2.05
2023-03-24T15:27:30.250Z,2.08
2023-03-24T15:30:18.753Z,2.35
2023-03-24T15:33:04.547Z,2.28
2023-03-24T15:35:57.130Z,2.05
2023-03-24T15:38:50.179Z,2.13
2023-03-24T15:41:36.237Z,2.00
2023-03-24T15:44:28.315Z,3.08
2023-03-24T15:47:28.871Z,2.90
2023-03-24T15:50:32.532Z,2.70
2023-03-24T15:56:06.719Z,2.88
2023-03-24T15:59:13.651Z,3.65
2023-03-24T16:02:00.183Z,2.33
2023-03-24T16:04:54.283Z,2.95
2023-03-24T16:08:03.672Z,2.60
2023-03-24T16:11:01.204Z,3.58
2023-03-24T16:13:46.887Z,2.85
2023-03-24T16:16:38.535Z,2.10
2023-03-24T16:19:25.190Z,2.35
2023-03-24T16:22:13.715Z,3.53
2023-03-24T16:24:59.015Z,2.60
2023-03-24T16:27:44.673Z,2.20
2023-03-24T16:30:37.800Z,2.22
2023-03-24T16:33:23.433Z,1.98
2023-03-24T16:36:11.736Z,2.30
2023-03-24T16:38:58.978Z,1.50
2023-03-24T16:41:45.564Z,4.30
2023-03-24T16:44:31.101Z,3.15
2023-03-24T16:47:16.584Z,2.83
2023-03-24T16:50:02.065Z,2.38
2023-03-24T16:52:47.748Z,2.95
2023-03-24T16:55:33.268Z,3.58
2023-03-24T16:58:18.962Z,2.67
2023-03-24T17:01:17.644Z,3.92
2023-03-24T17:04:10.248Z,2.67
2023-03-24T17:06:56.173Z,2.60
2023-03-24T17:09:41.412Z,2.65
2023-03-24T17:12:27.679Z,2.80
2023-03-24T17:15:25.778Z,2.72
2023-03-24T17:18:11.224Z,2.55
2023-03-24T17:20:56.632Z,2.67
2023-03-24T17:23:43.790Z,3.72
2023-03-24T17:26:30.869Z,2.53
2023-03-24T17:29:17.625Z,3.38
2023-03-24T17:32:03.427Z,4.28
2023-03-24T17:34:48.922Z,2.90
2023-03-24T17:37:34.571Z,4.10
2023-03-24T17:40:20.479Z,4.35
2023-03-24T17:43:06.505Z,3.00
2023-03-24T17:45:52.076Z,2.80
2023-03-24T17:48:37.729Z,1.50
2023-03-24T17:51:23.519Z,1.63
2023-03-24T17:54:10.457Z,1.45
2023-03-24T17:56:55.897Z,1.23
2023-03-24T17:59:42.008Z,1.30
2023-03-24T18:02:27.407Z,1.40
2023-03-24T18:05:13.398Z,2.45
2023-03-24T18:07:58.884Z,1.40
2023-03-24T18:10:44.643Z,1.20
2023-03-24T18:13:30.568Z,1.77
2023-03-24T18:16:22.017Z,1.85
2023-03-24T18:19:08.197Z,0.95
2023-03-24T18:21:53.661Z,0.80
2023-03-24T18:24:40.944Z,0.75
2023-03-24T18:27:27.243Z,0.68
2023-03-24T18:30:14.246Z,0.63
2023-03-24T18:33:01.488Z,1.10
2023-03-24T18:35:52.971Z,0.70
2023-03-24T18:38:38.718Z,0.77
2023-03-24T18:41:27.093Z,1.45
2023-03-24T18:44:14.993Z,0.47
2023-03-24T18:47:01.091Z,0.90
2023-03-24T18:49:46.989Z,1.00
2023-03-24T18:52:33.155Z,1.00
2023-03-24T18:55:20.872Z,1.67
2023-03-24T18:58:09.575Z,1.30
2023-03-24T19:00:56.991Z,1.60
2023-03-24T19:03:44.209Z,1.40
2023-03-24T19:06:35.165Z,1.92
2023-03-24T19:09:22.884Z,2.28
2023-03-24T19:12:09.247Z,2.70
2023-03-24T19:14:56.120Z,1.80
2023-03-24T19:17:41.372Z,2.17
2023-03-24T19:20:27.494Z,2.47
2023-03-24T19:23:13.601Z,3.00
2023-03-24T19:25:59.743Z,2.97
2023-03-24T19:28:45.089Z,2.50
2023-03-24T19:31:30.536Z,2.55
2023-03-24T19:34:17.827Z,5.00
2023-03-24T19:37:05.403Z,3.65
2023-03-24T19:39:52.996Z,2.85
2023-03-24T19:42:42.379Z,3.03
2023-03-24T19:45:28.111Z,3.72
2023-03-24T19:48:13.502Z,3.15
2023-03-24T19:50:59.322Z,3.20
2023-03-24T19:53:44.759Z,3.38
2023-03-24T19:56:31.086Z,3.33
2023-03-24T19:59:16.583Z,3.20
2023-03-24T20:02:02.329Z,4.38
2023-03-24T20:04:48.014Z,4.18
2023-03-24T20:07:33.711Z,4.28
2023-03-24T20:10:21.038Z,3.80
2023-03-24T20:13:08.026Z,4.35
2023-03-24T20:15:53.803Z,5.95
2023-03-24T20:18:39.396Z,4.05
2023-03-24T20:21:25.379Z,4.20
2023-03-24T20:24:11.915Z,4.13
2023-03-24T20:26:57.325Z,3.53
2023-03-24T20:29:43.714Z,4.43
2023-03-24T20:32:29.657Z,3.90
2023-03-24T20:35:16.057Z,4.88
2023-03-24T20:38:01.955Z,3.80
2023-03-24T20:40:48.758Z,3.80
2023-03-24T20:43:36.147Z,3.53
2023-03-24T20:46:22.170Z,4.95
2023-03-24T20:49:08.637Z,5.70
2023-03-24T20:51:54.147Z,3.90
2023-03-24T20:54:40.515Z,4.75
2023-03-24T20:57:26.453Z,4.93
2023-03-24T21:00:15.679Z,3.53
2023-03-24T21:03:01.422Z,3.92
2023-03-24T21:05:47.446Z,3.78
2023-03-24T21:08:32.899Z,4.63
2023-03-24T21:11:18.661Z,4.28
2023-03-24T21:14:04.061Z,3.67
2023-03-24T21:16:49.996Z,5.47
2023-03-24T21:19:37.291Z,4.15
2023-03-24T21:22:25.020Z,3.72
2023-03-24T21:25:11.214Z,4.35
2023-03-24T21:27:58.280Z,4.38
2023-03-24T21:30:44.748Z,5.03
2023-03-24T21:33:31.431Z,3.35
2023-03-24T21:36:18.859Z,3.70
2023-03-24T21:39:06.977Z,4.20
2023-03-24T21:41:54.745Z,3.35
2023-03-24T21:44:42.785Z,3.28
2023-03-24T21:47:28.186Z,4.43
2023-03-24T21:50:23.213Z,4.10
2023-03-24T21:53:15.016Z,4.20
2023-03-24T21:56:04.628Z,4.47
2023-03-24T21:58:52.338Z,3.97
2023-03-24T22:01:37.850Z,3.63
2023-03-24T22:04:25.248Z,3.42
2023-03-24T22:07:11.133Z,3.50
2023-03-24T22:09:57.185Z,4.45
2023-03-24T22:12:44.272Z,4.60
2023-03-24T22:15:33.339Z,3.33
2023-03-24T22:18:20.492Z,5.30
2023-03-24T22:21:08.466Z,4.00
2023-03-24T22:23:55.102Z,4.05
2023-03-24T22:26:40.865Z,3.92
2023-03-24T22:29:26.607Z,3.08
2023-03-24T22:32:12.533Z,3.13
2023-03-24T22:34:58.484Z,4.45
2023-03-24T22:37:43.805Z,3.10
2023-03-24T22:40:29.253Z,3.78
2023-03-24T22:43:15.399Z,2.97
2023-03-24T22:46:00.986Z,3.42
2023-03-24T22:48:46.995Z,2.88
2023-03-24T22:51:32.519Z,4.25
2023-03-24T22:54:18.215Z,3.40
2023-03-24T22:57:03.978Z,3.67
2023-03-24T22:59:49.959Z,4.20
2023-03-24T23:02:36.449Z,4.82
2023-03-24T23:05:22.311Z,4.10
2023-03-24T23:08:09.068Z,3.10
2023-03-24T23:10:55.833Z,3.10
2023-03-24T23:13:41.711Z,3.83
2023-03-24T23:16:26.976Z,3.65
2023-03-24T23:19:12.489Z,2.83
2023-03-24T23:21:58.778Z,3.15
2023-03-24T23:24:44.232Z,3.08
2023-03-24T23:27:34.462Z,3.03
2023-03-24T23:30:21.219Z,3.17
2023-03-24T23:33:06.833Z,3.40
2023-03-24T23:35:59.222Z,3.08
2023-03-24T23:38:47.540Z,3.03
2023-03-24T23:41:33.251Z,2.38
2023-03-24T23:44:20.022Z,3.30
2023-03-24T23:47:05.879Z,2.25
2023-03-24T23:49:51.626Z,3.63
2023-03-24T23:52:37.623Z,3.20
2023-03-24T23:55:23.364Z,2.33
2023-03-24T23:58:08.687Z,3.00
